createdAt,value
2019-06-07T00:00:53.095Z,57.50
2019-06-07T00:03:29.493Z,57.52
2019-06-07T00:05:54.339Z,57.57
2019-06-07T00:08:28.545Z,57.65
2019-06-07T00:10:55.327Z,57.94
2019-06-07T00:13:24.997Z,58.27
2019-06-07T00:15:54.650Z,58.22
2019-06-07T00:18:26.118Z,58.41
2019-06-07T00:20:56.728Z,58.61
2019-06-07T00:23:26.460Z,58.85
2019-06-07T00:25:56.098Z,59.20
2019-06-07T00:28:25.735Z,59.28
2019-06-07T00:30:55.415Z,59.49
2019-06-07T00:33:25.342Z,59.40
2019-06-07T00:35:55.173Z,59.54
2019-06-07T00:38:24.810Z,59.77
2019-06-07T00:40:54.440Z,59.80
2019-06-07T00:43:28.102Z,59.94
2019-06-07T00:45:55.453Z,60.37
2019-06-07T00:48:32.075Z,60.68
2019-06-07T00:50:56.442Z,61.07
2019-06-07T00:53:31.814Z,61.19
2019-06-07T00:55:57.459Z,61.11
2019-06-07T00:58:29.277Z,61.00
2019-06-07T01:00:58.377Z,61.00
2019-06-07T01:06:27.963Z,61.07
2019-06-07T01:08:57.615Z,61.19
2019-06-07T01:14:39.764Z,61.66
2019-06-07T01:17:39.226Z,61.48
2019-06-07T01:23:51.782Z,61.36
2019-06-07T01:29:03.299Z,61.93
2019-06-07T01:34:56.375Z,62.23
2019-06-07T01:37:27.992Z,62.32
2019-06-07T01:43:32.748Z,62.51
2019-06-07T01:46:02.386Z,62.81
2019-06-07T01:48:48.849Z,62.99
2019-06-07T01:56:47.233Z,62.90
2019-06-07T01:59:17.783Z,63.41
2019-06-07T02:02:28.055Z,63.75
2019-06-07T02:04:55.710Z,63.69
2019-06-07T02:07:29.547Z,63.63
2019-06-07T02:09:56.716Z,63.71
2019-06-07T02:12:37.614Z,64.03
2019-06-07T02:14:57.739Z,64.23
2019-06-07T02:17:30.162Z,64.39
2019-06-07T02:19:58.755Z,64.38
2019-06-07T02:22:31.017Z,64.80
2019-06-07T02:25:34.698Z,64.57
2019-06-07T02:27:32.776Z,64.85
2019-06-07T02:30:35.203Z,64.75
2019-06-07T02:32:36.629Z,64.70
2019-06-07T02:35:08.809Z,65.14
2019-06-07T02:37:38.445Z,65.35
2019-06-07T02:40:10.103Z,65.33
2019-06-07T02:42:42.721Z,65.40
2019-06-07T02:45:11.602Z,65.39
2019-06-07T02:47:42.210Z,65.51
2019-06-07T02:50:12.679Z,65.90
2019-06-07T02:52:42.539Z,66.22
2019-06-07T02:55:13.055Z,66.69
2019-06-07T02:57:43.293Z,66.66
2019-06-07T03:00:41.513Z,66.74
2019-06-07T03:02:46.722Z,66.96
2019-06-07T03:05:16.372Z,66.95
2019-06-07T03:07:48.011Z,67.01
2019-06-07T03:10:18.607Z,67.14
2019-06-07T03:12:50.735Z,67.30
2019-06-07T03:15:32.768Z,67.33
2019-06-07T03:17:54.677Z,67.39
2019-06-07T03:20:27.592Z,67.53
2019-06-07T03:23:00.318Z,67.84
2019-06-07T03:25:35.678Z,67.76
2019-06-07T03:28:04.950Z,68.04
2019-06-07T03:30:40.062Z,68.24
2019-06-07T03:33:05.887Z,68.46
2019-06-07T03:35:37.608Z,68.45
2019-06-07T03:38:06.896Z,68.41
2019-06-07T03:40:39.590Z,68.60
2019-06-07T03:43:07.894Z,69.01
2019-06-07T03:45:41.198Z,69.16
2019-06-07T03:48:08.881Z,69.22
2019-06-07T03:50:41.982Z,69.45
2019-06-07T03:53:09.921Z,69.62
2019-06-07T03:55:41.265Z,69.53
2019-06-07T03:58:31.354Z,69.55
2019-06-07T04:00:43.651Z,69.55
2019-06-07T04:03:32.997Z,69.60
2019-06-07T04:05:46.029Z,69.71
2019-06-07T04:08:15.696Z,69.81
2019-06-07T04:10:59.207Z,69.84
2019-06-07T04:13:17.822Z,70.12
2019-06-07T04:15:47.516Z,70.23
2019-06-07T04:18:17.147Z,70.13
2019-06-07T04:20:46.801Z,70.14
2019-06-07T04:23:27.840Z,70.21
2019-06-07T04:25:47.922Z,70.34
2019-06-07T04:28:17.593Z,70.51
2019-06-07T04:30:47.258Z,70.96
2019-06-07T04:33:16.921Z,71.55
2019-06-07T04:35:46.571Z,71.37
2019-06-07T04:38:16.311Z,71.37
2019-06-07T04:40:47.267Z,71.15
2019-06-07T04:43:17.935Z,71.15
2019-06-07T04:45:51.449Z,71.10
2019-06-07T04:48:21.832Z,71.69
2019-06-07T04:50:53.256Z,71.80
2019-06-07T04:53:22.899Z,71.93
2019-06-07T04:55:52.462Z,71.88
2019-06-07T04:58:22.196Z,71.96
2019-06-07T05:00:57.817Z,71.64
2019-06-07T05:03:23.200Z,71.39
2019-06-07T05:05:52.834Z,71.14
2019-06-07T05:08:28.089Z,70.95
2019-06-07T05:10:53.937Z,71.00
2019-06-07T05:13:23.942Z,70.78
2019-06-07T05:15:53.605Z,70.81
2019-06-07T05:18:23.239Z,70.65
2019-06-07T05:20:52.936Z,70.60
2019-06-07T05:24:03.797Z,70.70
2019-06-07T05:25:53.914Z,70.53
2019-06-07T05:28:23.575Z,70.68
2019-06-07T05:31:05.039Z,70.76
2019-06-07T05:33:24.972Z,71.32
2019-06-07T05:35:54.610Z,71.30
2019-06-07T05:38:24.353Z,71.17
2019-06-07T05:40:54.019Z,71.32
2019-06-07T05:43:29.249Z,71.18
2019-06-07T05:45:58.883Z,70.88
2019-06-07T05:48:28.539Z,70.55
2019-06-07T05:50:58.212Z,70.37
2019-06-07T05:53:27.920Z,70.12
2019-06-07T05:55:57.673Z,69.99
2019-06-07T05:58:27.312Z,69.76
2019-06-07T06:01:40.854Z,69.38
2019-06-07T06:03:28.332Z,69.07
2019-06-07T06:05:57.966Z,68.81
2019-06-07T06:08:27.594Z,68.56
2019-06-07T06:10:57.254Z,68.39
2019-06-07T06:13:26.888Z,68.17
2019-06-07T06:16:02.056Z,68.01
2019-06-07T06:18:27.888Z,67.85
2019-06-07T06:21:19.375Z,67.66
2019-06-07T06:23:28.998Z,67.75
2019-06-07T06:25:58.668Z,67.58
2019-06-07T06:28:28.296Z,67.44
2019-06-07T06:30:57.933Z,67.28
2019-06-07T06:33:34.377Z,67.34
2019-06-07T06:35:58.867Z,67.15
2019-06-07T06:38:28.517Z,67.25
2019-06-07T06:41:14.730Z,67.17
2019-06-07T06:43:29.518Z,67.14
2019-06-07T06:45:59.183Z,67.16
2019-06-07T06:48:28.816Z,67.06
2019-06-07T06:50:58.476Z,66.98
2019-06-07T06:53:28.107Z,66.96
2019-06-07T06:55:57.735Z,66.77
2019-06-07T06:58:27.418Z,66.94
2019-06-07T07:01:06.688Z,67.03
2019-06-07T07:03:57.158Z,66.92
2019-06-07T07:06:24.694Z,66.95
2019-06-07T07:08:32.974Z,67.15
2019-06-07T07:11:02.619Z,66.79
2019-06-07T07:13:32.277Z,67.00
2019-06-07T07:16:01.873Z,67.22
2019-06-07T07:18:31.506Z,66.79
2019-06-07T07:21:01.138Z,66.67
2019-06-07T07:23:30.899Z,66.80
2019-06-07T07:26:00.595Z,67.22
2019-06-07T07:28:30.228Z,67.12
2019-06-07T07:30:59.934Z,67.17
2019-06-07T07:34:26.858Z,67.76
2019-06-07T07:36:22.722Z,67.75
2019-06-07T07:38:32.304Z,68.09
2019-06-07T07:41:13.781Z,68.75
2019-06-07T07:43:33.295Z,69.25
2019-06-07T07:46:27.972Z,69.72
2019-06-07T07:48:35.370Z,70.17
2019-06-07T07:51:05.190Z,70.90
2019-06-07T07:53:48.337Z,70.98
2019-06-07T07:56:06.769Z,70.47
2019-06-07T07:58:36.679Z,70.54
2019-06-07T08:01:10.788Z,70.46
2019-06-07T08:03:38.767Z,70.07
2019-06-07T08:06:08.395Z,69.82
2019-06-07T08:08:38.029Z,70.10
2019-06-07T08:11:07.710Z,69.54
2019-06-07T08:13:37.488Z,69.99
2019-06-07T08:16:13.967Z,70.10
2019-06-07T08:18:38.509Z,70.80
2019-06-07T08:21:23.078Z,71.82
2019-06-07T08:23:39.585Z,71.88
2019-06-07T08:26:09.254Z,71.85
2019-06-07T08:28:38.918Z,71.04
2019-06-07T08:31:08.594Z,70.89
2019-06-07T08:33:38.328Z,70.13
2019-06-07T08:36:19.778Z,69.92
2019-06-07T08:38:47.967Z,68.28
2019-06-07T08:41:12.288Z,67.67
2019-06-07T08:43:42.119Z,68.00
2019-06-07T08:46:11.804Z,67.49
2019-06-07T08:48:41.442Z,67.55
2019-06-07T08:51:12.128Z,66.74
2019-06-07T08:53:41.758Z,66.08
2019-06-07T08:56:11.883Z,65.84
2019-06-07T08:58:41.621Z,66.16
2019-06-07T09:01:11.293Z,65.56
2019-06-07T09:03:40.933Z,64.76
2019-06-07T09:06:41.518Z,64.83
2019-06-07T09:08:41.911Z,64.58
2019-06-07T09:11:12.064Z,64.46
2019-06-07T09:13:41.798Z,64.44
2019-06-07T09:16:12.432Z,64.19
2019-06-07T09:18:44.790Z,64.92
2019-06-07T09:21:13.431Z,64.58
2019-06-07T09:23:43.056Z,64.66
2019-06-07T09:26:18.329Z,64.40
2019-06-07T09:28:45.410Z,64.32
2019-06-07T09:31:14.990Z,64.98
2019-06-07T09:33:44.889Z,64.88
2019-06-07T09:36:14.729Z,65.20
2019-06-07T09:38:45.592Z,64.02
2019-06-07T09:41:15.266Z,63.14
2019-06-07T09:44:13.041Z,63.91
2019-06-07T09:46:16.976Z,63.69
2019-06-07T09:49:12.197Z,63.33
2019-06-07T09:51:20.607Z,63.22
2019-06-07T09:53:50.450Z,63.91
2019-06-07T09:56:20.081Z,64.36
2019-06-07T09:58:53.283Z,64.49
2019-06-07T10:01:21.663Z,64.88
2019-06-07T10:03:52.431Z,65.59
2019-06-07T10:06:22.357Z,66.12
2019-06-07T10:11:23.379Z,67.37
2019-06-07T10:13:53.027Z,67.11
2019-06-07T10:16:22.671Z,67.64
2019-06-07T10:18:53.527Z,68.03
2019-06-07T10:21:23.213Z,68.74
2019-06-07T10:23:52.878Z,69.82
2019-06-07T10:26:24.469Z,69.49
2019-06-07T10:28:54.286Z,69.66
2019-06-07T10:31:23.968Z,69.76
2019-06-07T10:33:53.633Z,69.78
2019-06-07T10:36:23.423Z,69.68
2019-06-07T10:38:53.098Z,69.88
2019-06-07T10:41:22.752Z,69.84
2019-06-07T10:43:52.400Z,70.86
2019-06-07T10:46:22.041Z,70.74
2019-06-07T10:48:51.740Z,71.03
2019-06-07T10:51:21.403Z,71.44
2019-06-07T10:53:51.037Z,71.20
2019-06-07T10:56:20.716Z,71.79
2019-06-07T10:58:50.407Z,72.79
2019-06-07T11:01:20.057Z,72.96
2019-06-07T11:03:49.788Z,73.30
2019-06-07T11:06:19.434Z,73.49
2019-06-07T11:08:49.066Z,73.58
2019-06-07T11:11:18.724Z,74.41
2019-06-07T11:13:48.363Z,74.64
2019-06-07T11:16:17.999Z,75.05
2019-06-07T11:18:47.646Z,75.19
2019-06-07T11:21:18.556Z,75.47
2019-06-07T11:23:48.336Z,75.76
2019-06-07T11:26:18.654Z,75.62
2019-06-07T11:28:48.398Z,75.93
2019-06-07T11:31:18.924Z,75.97
2019-06-07T11:33:48.716Z,76.11
2019-06-07T11:36:18.908Z,76.25
2019-06-07T11:38:48.625Z,76.10
2019-06-07T11:41:18.358Z,76.28
2019-06-07T11:43:48.039Z,76.74
2019-06-07T11:46:17.669Z,76.63
2019-06-07T11:48:47.327Z,76.42
2019-06-07T11:51:16.980Z,76.49
2019-06-07T11:53:46.594Z,76.77
2019-06-07T11:56:16.344Z,77.08
2019-06-07T11:58:46.012Z,77.31
2019-06-07T12:01:18.489Z,77.80
2019-06-07T12:03:47.785Z,78.04
2019-06-07T12:06:18.120Z,78.46
2019-06-07T12:08:47.890Z,78.40
2019-06-07T12:11:18.526Z,79.16
2019-06-07T12:13:48.166Z,79.19
2019-06-07T12:16:19.276Z,79.23
2019-06-07T12:18:49.214Z,78.96
2019-06-07T12:21:20.037Z,79.10
2019-06-07T12:23:49.674Z,78.68
2019-06-07T12:26:20.366Z,78.63
2019-06-07T12:28:50.337Z,79.09
2019-06-07T12:31:21.100Z,78.88
2019-06-07T12:33:51.101Z,78.94
2019-06-07T12:36:22.021Z,79.24
2019-06-07T12:38:51.757Z,79.70
2019-06-07T12:41:22.376Z,80.14
2019-06-07T12:43:53.131Z,79.87
2019-06-07T12:46:26.818Z,79.80
2019-06-07T12:48:54.119Z,80.08
2019-06-07T12:51:23.787Z,79.60
2019-06-07T12:53:53.414Z,79.53
2019-06-07T12:56:24.236Z,79.04
2019-06-07T12:58:55.098Z,78.68
2019-06-07T13:01:24.949Z,77.58
2019-06-07T13:03:54.672Z,76.71
2019-06-07T13:06:25.381Z,77.17
2019-06-07T13:08:55.012Z,77.35
2019-06-07T13:11:29.554Z,76.73
2019-06-07T13:13:56.483Z,75.94
2019-06-07T13:16:26.116Z,75.94
2019-06-07T13:18:55.698Z,76.85
2019-06-07T13:21:25.354Z,76.31
2019-06-07T13:23:55.027Z,76.41
2019-06-07T13:26:25.094Z,75.16
2019-06-07T13:28:54.818Z,75.13
2019-06-07T13:31:25.259Z,75.17
2019-06-07T13:33:55.067Z,74.67
2019-06-07T13:36:24.623Z,73.85
2019-06-07T13:38:55.255Z,74.02
2019-06-07T13:41:36.307Z,73.01
2019-06-07T13:43:56.263Z,71.53
2019-06-07T13:46:27.083Z,70.08
2019-06-07T13:48:58.028Z,68.00
2019-06-07T13:51:28.897Z,67.79
2019-06-07T13:53:58.754Z,65.69
2019-06-07T13:56:28.480Z,64.93
2019-06-07T13:58:58.086Z,64.11
2019-06-07T14:01:29.007Z,63.56
2019-06-07T14:03:59.295Z,62.01
2019-06-07T14:06:30.280Z,62.14
2019-06-07T14:08:59.995Z,60.19
2019-06-07T14:11:31.571Z,60.41
2019-06-07T14:14:01.427Z,60.90
2019-06-07T14:16:31.044Z,60.75
2019-06-07T14:19:00.703Z,61.20
2019-06-07T14:21:30.907Z,63.11
2019-06-07T14:24:00.644Z,62.19
2019-06-07T14:26:32.394Z,62.56
2019-06-07T14:29:01.737Z,62.54
2019-06-07T14:31:32.266Z,62.53
2019-06-07T14:34:02.419Z,62.35
2019-06-07T14:36:33.379Z,62.13
2019-06-07T14:39:03.217Z,61.81
2019-06-07T14:41:33.973Z,62.09
2019-06-07T14:44:03.598Z,62.47
2019-06-07T14:46:34.406Z,62.34
2019-06-07T14:49:05.168Z,61.03
2019-06-07T14:51:35.804Z,60.38
2019-06-07T14:54:05.459Z,60.03
2019-06-07T14:56:35.412Z,60.14
2019-06-07T14:59:05.237Z,59.81
2019-06-07T15:01:35.625Z,59.63
2019-06-07T15:04:05.972Z,58.92
2019-06-07T15:06:36.599Z,58.09
2019-06-07T15:09:07.747Z,58.78
2019-06-07T15:11:37.487Z,57.49
2019-06-07T15:14:07.116Z,56.97
2019-06-07T15:16:37.926Z,57.10
2019-06-07T15:19:07.810Z,57.52
2019-06-07T15:21:37.432Z,56.70
2019-06-07T15:24:08.078Z,56.69
2019-06-07T15:26:38.637Z,56.52
2019-06-07T15:29:08.440Z,55.58
2019-06-07T15:31:38.734Z,53.94
2019-06-07T15:34:08.457Z,54.47
2019-06-07T15:36:38.684Z,54.44
2019-06-07T15:39:08.729Z,55.06
2019-06-07T15:41:39.734Z,55.37
2019-06-07T15:44:09.821Z,55.68
2019-06-07T15:46:40.170Z,55.39
2019-06-07T15:49:09.975Z,55.67
2019-06-07T15:51:40.962Z,54.36
2019-06-07T15:54:11.830Z,54.62
2019-06-07T15:56:41.537Z,54.50
2019-06-07T15:59:12.423Z,55.22
2019-06-07T16:01:42.357Z,55.86
2019-06-07T16:04:12.078Z,55.01
2019-06-07T16:06:43.470Z,54.72
2019-06-07T16:09:13.339Z,54.81
2019-06-07T16:11:43.664Z,55.43
2019-06-07T16:14:14.106Z,55.64
2019-06-07T16:16:43.778Z,56.25
2019-06-07T16:19:13.601Z,56.63
2019-06-07T16:21:43.763Z,57.11
2019-06-07T16:24:13.430Z,57.45
2019-06-07T16:26:44.422Z,59.73
2019-06-07T16:29:15.321Z,62.19
2019-06-07T16:31:45.222Z,64.27
2019-06-07T16:34:14.977Z,65.14
2019-06-07T16:36:44.713Z,65.74
2019-06-07T16:39:14.330Z,66.57
2019-06-07T16:41:44.849Z,67.18
2019-06-07T16:44:14.694Z,67.57
2019-06-07T16:46:45.050Z,69.07
2019-06-07T16:49:14.789Z,69.92
2019-06-07T16:51:45.403Z,71.28
2019-06-07T16:54:15.159Z,71.79
2019-06-07T16:56:48.084Z,71.67
2019-06-07T16:59:17.388Z,72.31
2019-06-07T17:01:47.086Z,72.53
2019-06-07T17:04:16.767Z,73.17
2019-06-07T17:06:46.927Z,73.86
2019-06-07T17:09:17.807Z,73.93
2019-06-07T17:11:48.612Z,73.93
2019-06-07T17:14:18.380Z,74.48
2019-06-07T17:16:50.061Z,74.95
2019-06-07T17:19:19.382Z,74.62
2019-06-07T17:21:49.555Z,75.01
2019-06-07T17:24:19.229Z,73.89
2019-06-07T17:26:49.675Z,74.31
2019-06-07T17:29:19.396Z,74.61
2019-06-07T17:31:50.277Z,74.38
2019-06-07T17:34:20.052Z,74.68
2019-06-07T17:36:50.705Z,74.35
2019-06-07T17:39:20.511Z,74.13
2019-06-07T17:42:00.034Z,74.56
2019-06-07T17:44:21.502Z,74.81
2019-06-07T17:46:51.831Z,74.87
2019-06-07T17:49:21.558Z,74.30
2019-06-07T17:51:52.245Z,74.04
2019-06-07T17:54:22.065Z,74.14
2019-06-07T17:56:53.220Z,74.42
2019-06-07T17:59:24.128Z,74.87
2019-06-07T18:02:13.213Z,74.72
2019-06-07T18:04:25.177Z,74.78
2019-06-07T18:06:54.825Z,74.59
2019-06-07T18:09:25.659Z,74.16
2019-06-07T18:11:55.308Z,74.21
2019-06-07T18:14:25.048Z,74.60
2019-06-07T18:16:54.912Z,74.14
2019-06-07T18:19:24.642Z,74.88
2019-06-07T18:21:57.377Z,75.23
2019-06-07T18:24:25.596Z,75.32
2019-06-07T18:26:55.348Z,75.98
2019-06-07T18:29:24.979Z,75.85
2019-06-07T18:31:55.229Z,75.98
2019-06-07T18:34:26.040Z,76.10
2019-06-07T18:36:55.670Z,76.28
2019-06-07T18:39:25.302Z,76.94
2019-06-07T18:41:55.383Z,76.67
2019-06-07T18:44:25.205Z,77.27
2019-06-07T18:46:54.837Z,77.41
2019-06-07T18:49:24.463Z,77.77
2019-06-07T18:52:12.417Z,77.94
2019-06-07T18:54:42.056Z,77.63
2019-06-07T18:57:12.468Z,78.16
2019-06-07T18:59:42.283Z,78.79
2019-06-07T19:02:11.910Z,79.74
2019-06-07T19:04:41.546Z,80.43
2019-06-07T19:07:11.195Z,81.01
2019-06-07T19:09:40.829Z,81.22
2019-06-07T19:12:10.540Z,81.10
2019-06-07T19:14:40.087Z,81.33
2019-06-07T19:17:09.723Z,81.27
2019-06-07T19:19:39.430Z,81.42
2019-06-07T19:22:09.030Z,81.37
2019-06-07T19:24:38.660Z,81.27
2019-06-07T19:27:08.368Z,81.65
2019-06-07T19:29:38.018Z,81.62
2019-06-07T19:32:07.651Z,81.57
2019-06-07T19:34:37.279Z,81.55
2019-06-07T19:37:06.926Z,81.18
2019-06-07T19:39:36.562Z,81.40
2019-06-07T19:42:06.186Z,81.58
2019-06-07T19:44:35.838Z,81.40
2019-06-07T19:47:05.470Z,81.51
2019-06-07T19:49:35.115Z,81.43
2019-06-07T19:52:05.800Z,80.97
2019-06-07T19:54:35.450Z,81.35
2019-06-07T19:57:05.303Z,81.53
2019-06-07T19:59:34.936Z,81.54
2019-06-07T20:02:05.538Z,81.76
2019-06-07T20:04:35.168Z,81.62
2019-06-07T20:07:05.693Z,81.66
2019-06-07T20:09:35.539Z,81.71
2019-06-07T20:12:05.390Z,81.82
2019-06-07T20:14:35.035Z,81.92
2019-06-07T20:17:05.660Z,81.99
2019-06-07T20:19:35.387Z,81.89
2019-06-07T20:22:05.556Z,81.93
2019-06-07T20:24:37.932Z,82.12
2019-06-07T20:27:06.621Z,82.18
2019-06-07T20:29:36.256Z,82.31
2019-06-07T20:32:05.887Z,82.44
2019-06-07T20:34:35.552Z,82.59
2019-06-07T20:37:06.037Z,82.65
2019-06-07T20:39:36.536Z,82.64
2019-06-07T20:42:07.663Z,82.66
2019-06-07T20:44:38.499Z,82.73
2019-06-07T20:47:08.447Z,82.90
2019-06-07T20:49:39.229Z,82.91
2019-06-07T20:52:08.878Z,82.87
2019-06-07T20:54:38.691Z,82.83
2019-06-07T20:57:08.924Z,82.90
2019-06-07T20:59:39.654Z,82.88
2019-06-07T21:02:09.725Z,82.84
2019-06-07T21:04:39.484Z,82.91
2019-06-07T21:07:10.155Z,83.03
2019-06-07T21:09:39.930Z,83.03
2019-06-07T21:12:10.020Z,83.11
2019-06-07T21:14:39.846Z,83.11
2019-06-07T21:17:10.355Z,83.12
2019-06-07T21:19:40.152Z,83.16
2019-06-07T21:22:10.965Z,83.14
2019-06-07T21:24:40.645Z,83.09
2019-06-07T21:27:11.434Z,83.18
2019-06-07T21:29:41.106Z,83.33
2019-06-07T21:32:11.766Z,83.52
2019-06-07T21:34:41.573Z,83.44
2019-06-07T21:37:12.174Z,83.20
2019-06-07T21:39:41.930Z,83.21
2019-06-07T21:42:12.407Z,83.29
2019-06-07T21:44:42.131Z,83.58
2019-06-07T21:47:12.745Z,83.53
2019-06-07T21:49:43.507Z,83.50
2019-06-07T21:52:13.141Z,83.47
2019-06-07T21:54:42.780Z,83.37
2019-06-07T21:57:13.187Z,83.35
2019-06-07T21:59:42.953Z,83.30
2019-06-07T22:02:13.748Z,83.34
2019-06-07T22:04:44.218Z,83.33
2019-06-07T22:07:13.882Z,83.39
2019-06-07T22:09:43.557Z,83.39
2019-06-07T22:12:14.312Z,83.42
2019-06-07T22:14:45.152Z,83.47
2019-06-07T22:17:14.821Z,83.54
2019-06-07T22:19:45.462Z,83.56
2019-06-07T22:22:15.124Z,83.63
2019-06-07T22:24:44.779Z,83.75
2019-06-07T22:27:15.560Z,83.79
2019-06-07T22:29:46.357Z,83.89
2019-06-07T22:32:16.017Z,83.90
2019-06-07T22:34:45.658Z,83.95
2019-06-07T22:37:17.341Z,84.00
2019-06-07T22:39:46.662Z,83.74
2019-06-07T22:42:16.409Z,83.43
2019-06-07T22:44:46.044Z,83.25
2019-06-07T22:47:16.149Z,83.14
2019-06-07T22:49:45.920Z,83.18
2019-06-07T22:52:16.876Z,83.25
2019-06-07T22:54:46.931Z,83.37
2019-06-07T22:57:18.425Z,83.49
2019-06-07T22:59:48.136Z,83.58
2019-06-07T23:02:18.846Z,83.63
2019-06-07T23:04:49.540Z,83.65
2019-06-07T23:07:19.314Z,83.88
2019-06-07T23:09:49.018Z,84.07
2019-06-07T23:12:19.586Z,84.09
2019-06-07T23:14:49.304Z,84.03
2019-06-07T23:17:20.632Z,83.98
2019-06-07T23:19:51.427Z,83.94
2019-06-07T23:22:21.117Z,84.04
2019-06-07T23:24:50.752Z,84.12
2019-06-07T23:27:20.812Z,84.17
2019-06-07T23:29:50.553Z,84.05
2019-06-07T23:32:21.541Z,83.95
2019-06-07T23:34:51.360Z,83.89
2019-06-07T23:37:21.360Z,83.89
2019-06-07T23:39:51.130Z,83.74
2019-06-07T23:42:21.817Z,83.62
2019-06-07T23:44:51.682Z,83.52
2019-06-07T23:47:22.427Z,83.60
2019-06-07T23:49:52.217Z,83.66
2019-06-07T23:52:22.149Z,83.78
2019-06-07T23:54:51.801Z,83.81
2019-06-07T23:57:22.697Z,83.75
2019-06-07T23:59:52.373Z,83.62
